sensor_id;sensor_type;location;lat;lon;timestamp;P1;durP1;ratioP1;P2;durP2;ratioP2
46110;SDS011;31849;55.992;37.252;2022-10-16T00:01:22;16.83;;;10.05;;
46110;SDS011;31849;55.992;37.252;2022-10-16T00:06:28;18.20;;;9.85;;
46110;SDS011;31849;55.992;37.252;2022-10-16T00:11:33;18.42;;;10.45;;
46110;SDS011;31849;55.992;37.252;2022-10-16T00:16:41;20.50;;;10.57;;
46110;SDS011;31849;55.992;37.252;2022-10-16T00:21:45;16.52;;;9.43;;
46110;SDS011;31849;55.992;37.252;2022-10-16T00:27:08;15.60;;;8.90;;
46110;SDS011;31849;55.992;37.252;2022-10-16T00:32:14;19.70;;;10.23;;
46110;SDS011;31849;55.992;37.252;2022-10-16T00:37:17;16.20;;;9.50;;
46110;SDS011;31849;55.992;37.252;2022-10-16T00:42:21;19.67;;;10.83;;
46110;SDS011;31849;55.992;37.252;2022-10-16T00:47:28;20.23;;;10.77;;
46110;SDS011;31849;55.992;37.252;2022-10-16T00:52:35;20.58;;;11.52;;
46110;SDS011;31849;55.992;37.252;2022-10-16T00:57:42;21.02;;;11.70;;
46110;SDS011;31849;55.992;37.252;2022-10-16T01:02:53;17.13;;;10.18;;
46110;SDS011;31849;55.992;37.252;2022-10-16T01:07:58;16.98;;;10.60;;
46110;SDS011;31849;55.992;37.252;2022-10-16T01:13:09;18.73;;;10.40;;
46110;SDS011;31849;55.992;37.252;2022-10-16T01:18:18;17.50;;;9.65;;
46110;SDS011;31849;55.992;37.252;2022-10-16T01:23:33;16.42;;;9.32;;
46110;SDS011;31849;55.992;37.252;2022-10-16T01:28:45;14.75;;;8.55;;
46110;SDS011;31849;55.992;37.252;2022-10-16T01:33:58;17.67;;;9.40;;
46110;SDS011;31849;55.992;37.252;2022-10-16T01:39:05;20.02;;;9.90;;
46110;SDS011;31849;55.992;37.252;2022-10-16T01:44:16;17.35;;;9.32;;
46110;SDS011;31849;55.992;37.252;2022-10-16T01:49:23;19.35;;;10.35;;
46110;SDS011;31849;55.992;37.252;2022-10-16T01:54:31;16.42;;;9.30;;
46110;SDS011;31849;55.992;37.252;2022-10-16T01:59:39;19.95;;;9.48;;
46110;SDS011;31849;55.992;37.252;2022-10-16T02:04:48;20.10;;;9.05;;
46110;SDS011;31849;55.992;37.252;2022-10-16T02:09:56;15.18;;;8.98;;
46110;SDS011;31849;55.992;37.252;2022-10-16T02:15:01;16.60;;;8.80;;
46110;SDS011;31849;55.992;37.252;2022-10-16T02:20:05;21.05;;;9.57;;
46110;SDS011;31849;55.992;37.252;2022-10-16T02:25:10;14.27;;;8.57;;
46110;SDS011;31849;55.992;37.252;2022-10-16T02:30:23;17.05;;;9.52;;
46110;SDS011;31849;55.992;37.252;2022-10-16T02:35:31;16.92;;;9.07;;
46110;SDS011;31849;55.992;37.252;2022-10-16T02:40:35;16.70;;;8.82;;
46110;SDS011;31849;55.992;37.252;2022-10-16T02:45:41;17.90;;;9.32;;
46110;SDS011;31849;55.992;37.252;2022-10-16T02:50:45;17.83;;;9.40;;
46110;SDS011;31849;55.992;37.252;2022-10-16T02:55:49;14.97;;;9.67;;
46110;SDS011;31849;55.992;37.252;2022-10-16T03:00:54;17.75;;;8.52;;
46110;SDS011;31849;55.992;37.252;2022-10-16T03:05:58;16.13;;;9.45;;
46110;SDS011;31849;55.992;37.252;2022-10-16T03:11:02;15.80;;;9.77;;
46110;SDS011;31849;55.992;37.252;2022-10-16T03:16:08;19.40;;;10.73;;
46110;SDS011;31849;55.992;37.252;2022-10-16T03:21:14;19.85;;;11.88;;
46110;SDS011;31849;55.992;37.252;2022-10-16T03:26:19;24.67;;;12.85;;
46110;SDS011;31849;55.992;37.252;2022-10-16T03:31:24;23.20;;;12.07;;
46110;SDS011;31849;55.992;37.252;2022-10-16T03:36:29;17.73;;;11.02;;
46110;SDS011;31849;55.992;37.252;2022-10-16T03:41:32;19.25;;;10.02;;
46110;SDS011;31849;55.992;37.252;2022-10-16T03:46:38;17.30;;;9.88;;
46110;SDS011;31849;55.992;37.252;2022-10-16T03:51:42;16.73;;;9.27;;
46110;SDS011;31849;55.992;37.252;2022-10-16T03:56:46;15.73;;;8.17;;
46110;SDS011;31849;55.992;37.252;2022-10-16T04:01:51;13.10;;;8.10;;
46110;SDS011;31849;55.992;37.252;2022-10-16T04:06:55;18.50;;;9.38;;
46110;SDS011;31849;55.992;37.252;2022-10-16T04:11:59;13.73;;;8.47;;
46110;SDS011;31849;55.992;37.252;2022-10-16T04:17:04;13.77;;;7.70;;
46110;SDS011;31849;55.992;37.252;2022-10-16T04:22:08;15.98;;;9.10;;
46110;SDS011;31849;55.992;37.252;2022-10-16T04:27:12;16.42;;;8.00;;
46110;SDS011;31849;55.992;37.252;2022-10-16T04:32:17;16.83;;;9.10;;
46110;SDS011;31849;55.992;37.252;2022-10-16T04:37:23;42.28;;;19.35;;
46110;SDS011;31849;55.992;37.252;2022-10-16T04:42:27;53.17;;;25.02;;
46110;SDS011;31849;55.992;37.252;2022-10-16T04:47:31;46.88;;;25.10;;
46110;SDS011;31849;55.992;37.252;2022-10-16T04:52:35;27.10;;;15.70;;
46110;SDS011;31849;55.992;37.252;2022-10-16T04:57:39;25.65;;;14.57;;
46110;SDS011;31849;55.992;37.252;2022-10-16T05:07:48;20.60;;;12.50;;
46110;SDS011;31849;55.992;37.252;2022-10-16T05:12:53;18.27;;;11.00;;
46110;SDS011;31849;55.992;37.252;2022-10-16T05:17:57;17.98;;;11.07;;
46110;SDS011;31849;55.992;37.252;2022-10-16T05:23:01;15.35;;;9.10;;
46110;SDS011;31849;55.992;37.252;2022-10-16T05:28:05;13.90;;;8.45;;
46110;SDS011;31849;55.992;37.252;2022-10-16T05:33:10;13.63;;;7.80;;
46110;SDS011;31849;55.992;37.252;2022-10-16T05:38:14;11.95;;;7.45;;
46110;SDS011;31849;55.992;37.252;2022-10-16T05:43:18;11.05;;;5.68;;
46110;SDS011;31849;55.992;37.252;2022-10-16T05:48:23;12.57;;;6.43;;
46110;SDS011;31849;55.992;37.252;2022-10-16T05:53:28;9.63;;;5.82;;
46110;SDS011;31849;55.992;37.252;2022-10-16T05:58:33;11.32;;;6.47;;
46110;SDS011;31849;55.992;37.252;2022-10-16T06:03:39;11.32;;;5.50;;
46110;SDS011;31849;55.992;37.252;2022-10-16T06:08:43;10.00;;;5.20;;
46110;SDS011;31849;55.992;37.252;2022-10-16T06:13:49;12.07;;;6.18;;
46110;SDS011;31849;55.992;37.252;2022-10-16T06:18:54;9.93;;;6.50;;
46110;SDS011;31849;55.992;37.252;2022-10-16T06:23:59;11.80;;;5.68;;
46110;SDS011;31849;55.992;37.252;2022-10-16T06:29:04;8.57;;;5.60;;
46110;SDS011;31849;55.992;37.252;2022-10-16T06:34:10;11.35;;;5.95;;
46110;SDS011;31849;55.992;37.252;2022-10-16T06:39:14;7.82;;;5.75;;
46110;SDS011;31849;55.992;37.252;2022-10-16T06:44:17;10.60;;;7.32;;
46110;SDS011;31849;55.992;37.252;2022-10-16T06:49:22;10.88;;;6.78;;
46110;SDS011;31849;55.992;37.252;2022-10-16T06:54:26;9.82;;;6.75;;
46110;SDS011;31849;55.992;37.252;2022-10-16T06:59:30;8.85;;;6.30;;
46110;SDS011;31849;55.992;37.252;2022-10-16T07:04:36;11.25;;;6.25;;
46110;SDS011;31849;55.992;37.252;2022-10-16T07:09:40;9.27;;;5.95;;
46110;SDS011;31849;55.992;37.252;2022-10-16T07:14:44;8.27;;;5.53;;
46110;SDS011;31849;55.992;37.252;2022-10-16T07:19:49;10.05;;;5.43;;
46110;SDS011;31849;55.992;37.252;2022-10-16T07:24:55;11.52;;;5.68;;
46110;SDS011;31849;55.992;37.252;2022-10-16T07:29:58;6.93;;;5.10;;
46110;SDS011;31849;55.992;37.252;2022-10-16T07:35:10;7.50;;;5.30;;
46110;SDS011;31849;55.992;37.252;2022-10-16T07:40:15;9.57;;;5.65;;
46110;SDS011;31849;55.992;37.252;2022-10-16T07:45:18;8.05;;;5.20;;
46110;SDS011;31849;55.992;37.252;2022-10-16T07:50:23;7.72;;;5.05;;
46110;SDS011;31849;55.992;37.252;2022-10-16T07:55:28;7.93;;;5.88;;
46110;SDS011;31849;55.992;37.252;2022-10-16T08:00:31;9.60;;;5.90;;
46110;SDS011;31849;55.992;37.252;2022-10-16T08:05:37;8.75;;;5.38;;
46110;SDS011;31849;55.992;37.252;2022-10-16T08:10:41;8.73;;;4.82;;
46110;SDS011;31849;55.992;37.252;2022-10-16T08:15:45;7.65;;;5.30;;
46110;SDS011;31849;55.992;37.252;2022-10-16T08:20:56;6.43;;;4.50;;
46110;SDS011;31849;55.992;37.252;2022-10-16T08:26:04;8.18;;;5.22;;
46110;SDS011;31849;55.992;37.252;2022-10-16T08:31:11;6.32;;;4.80;;
46110;SDS011;31849;55.992;37.252;2022-10-16T08:36:19;8.43;;;4.70;;
46110;SDS011;31849;55.992;37.252;2022-10-16T08:41:36;7.03;;;4.75;;
46110;SDS011;31849;55.992;37.252;2022-10-16T08:46:58;10.95;;;4.82;;
46110;SDS011;31849;55.992;37.252;2022-10-16T08:52:13;8.77;;;4.35;;
46110;SDS011;31849;55.992;37.252;2022-10-16T08:57:17;7.60;;;4.50;;
46110;SDS011;31849;55.992;37.252;2022-10-16T09:02:27;6.93;;;4.18;;
46110;SDS011;31849;55.992;37.252;2022-10-16T09:07:38;7.72;;;4.07;;
46110;SDS011;31849;55.992;37.252;2022-10-16T09:12:52;8.23;;;4.10;;
46110;SDS011;31849;55.992;37.252;2022-10-16T09:18:05;6.80;;;3.80;;
46110;SDS011;31849;55.992;37.252;2022-10-16T09:23:18;7.30;;;4.32;;
46110;SDS011;31849;55.992;37.252;2022-10-16T09:28:24;7.70;;;3.83;;
46110;SDS011;31849;55.992;37.252;2022-10-16T09:33:29;9.85;;;4.50;;
46110;SDS011;31849;55.992;37.252;2022-10-16T09:38:38;9.15;;;4.20;;
46110;SDS011;31849;55.992;37.252;2022-10-16T09:43:47;6.15;;;3.60;;
46110;SDS011;31849;55.992;37.252;2022-10-16T09:48:55;5.63;;;2.92;;
46110;SDS011;31849;55.992;37.252;2022-10-16T09:54:10;6.15;;;3.17;;
46110;SDS011;31849;55.992;37.252;2022-10-16T09:59:17;8.43;;;3.30;;
46110;SDS011;31849;55.992;37.252;2022-10-16T10:04:23;8.95;;;3.42;;
46110;SDS011;31849;55.992;37.252;2022-10-16T10:09:31;5.97;;;3.03;;
46110;SDS011;31849;55.992;37.252;2022-10-16T10:14:42;8.52;;;3.45;;
46110;SDS011;31849;55.992;37.252;2022-10-16T10:19:48;9.93;;;3.60;;
46110;SDS011;31849;55.992;37.252;2022-10-16T10:25:12;7.20;;;2.90;;
46110;SDS011;31849;55.992;37.252;2022-10-16T10:30:23;8.05;;;3.33;;
46110;SDS011;31849;55.992;37.252;2022-10-16T10:35:31;5.82;;;2.78;;
46110;SDS011;31849;55.992;37.252;2022-10-16T10:40:50;7.15;;;3.47;;
46110;SDS011;31849;55.992;37.252;2022-10-16T10:46:02;5.00;;;3.25;;
46110;SDS011;31849;55.992;37.252;2022-10-16T10:51:08;8.23;;;3.20;;
46110;SDS011;31849;55.992;37.252;2022-10-16T10:56:23;7.95;;;3.30;;
46110;SDS011;31849;55.992;37.252;2022-10-16T11:01:41;6.60;;;3.60;;
46110;SDS011;31849;55.992;37.252;2022-10-16T11:06:55;7.38;;;3.40;;
46110;SDS011;31849;55.992;37.252;2022-10-16T11:12:07;5.70;;;3.28;;
46110;SDS011;31849;55.992;37.252;2022-10-16T11:17:18;7.17;;;3.37;;
46110;SDS011;31849;55.992;37.252;2022-10-16T11:22:29;6.68;;;3.50;;
46110;SDS011;31849;55.992;37.252;2022-10-16T11:27:39;5.88;;;3.60;;
46110;SDS011;31849;55.992;37.252;2022-10-16T11:32:52;10.27;;;3.47;;
46110;SDS011;31849;55.992;37.252;2022-10-16T11:38:03;7.03;;;3.25;;
46110;SDS011;31849;55.992;37.252;2022-10-16T11:43:24;7.50;;;3.50;;
46110;SDS011;31849;55.992;37.252;2022-10-16T11:48:33;7.63;;;3.67;;
46110;SDS011;31849;55.992;37.252;2022-10-16T11:53:45;7.53;;;3.55;;
46110;SDS011;31849;55.992;37.252;2022-10-16T11:58:56;9.57;;;3.28;;
46110;SDS011;31849;55.992;37.252;2022-10-16T12:04:06;9.00;;;3.58;;
46110;SDS011;31849;55.992;37.252;2022-10-16T12:09:27;6.90;;;3.05;;
46110;SDS011;31849;55.992;37.252;2022-10-16T12:14:36;5.53;;;3.10;;
46110;SDS011;31849;55.992;37.252;2022-10-16T12:20:12;5.90;;;3.20;;
46110;SDS011;31849;55.992;37.252;2022-10-16T12:25:29;7.00;;;3.05;;
46110;SDS011;31849;55.992;37.252;2022-10-16T12:30:36;7.20;;;2.92;;
46110;SDS011;31849;55.992;37.252;2022-10-16T12:35:43;8.60;;;3.20;;
46110;SDS011;31849;55.992;37.252;2022-10-16T12:40:54;8.23;;;3.78;;
46110;SDS011;31849;55.992;37.252;2022-10-16T12:46:04;6.38;;;3.50;;
46110;SDS011;31849;55.992;37.252;2022-10-16T12:51:25;6.80;;;3.33;;
46110;SDS011;31849;55.992;37.252;2022-10-16T12:56:41;6.70;;;3.20;;
46110;SDS011;31849;55.992;37.252;2022-10-16T13:02:06;9.68;;;3.88;;
46110;SDS011;31849;55.992;37.252;2022-10-16T13:07:25;5.53;;;3.35;;
46110;SDS011;31849;55.992;37.252;2022-10-16T13:12:51;5.65;;;2.90;;
46110;SDS011;31849;55.992;37.252;2022-10-16T13:18:18;5.30;;;3.10;;
46110;SDS011;31849;55.992;37.252;2022-10-16T13:23:27;5.43;;;2.63;;
46110;SDS011;31849;55.992;37.252;2022-10-16T13:28:37;9.77;;;3.40;;
46110;SDS011;31849;55.992;37.252;2022-10-16T13:33:45;11.00;;;3.80;;
46110;SDS011;31849;55.992;37.252;2022-10-16T13:39:06;6.78;;;3.30;;
46110;SDS011;31849;55.992;37.252;2022-10-16T13:44:17;7.47;;;3.45;;
46110;SDS011;31849;55.992;37.252;2022-10-16T13:49:24;8.10;;;3.30;;
46110;SDS011;31849;55.992;37.252;2022-10-16T13:54:29;10.30;;;4.10;;
46110;SDS011;31849;55.992;37.252;2022-10-16T13:59:35;10.80;;;4.10;;
46110;SDS011;31849;55.992;37.252;2022-10-16T14:04:42;8.13;;;3.95;;
46110;SDS011;31849;55.992;37.252;2022-10-16T14:09:47;9.82;;;4.13;;
46110;SDS011;31849;55.992;37.252;2022-10-16T14:14:53;9.93;;;4.32;;
46110;SDS011;31849;55.992;37.252;2022-10-16T14:25:19;9.20;;;4.53;;
46110;SDS011;31849;55.992;37.252;2022-10-16T14:30:29;9.40;;;4.15;;
46110;SDS011;31849;55.992;37.252;2022-10-16T14:35:38;10.35;;;4.07;;
46110;SDS011;31849;55.992;37.252;2022-10-16T14:40:46;10.00;;;4.43;;
46110;SDS011;31849;55.992;37.252;2022-10-16T14:45:53;9.82;;;4.78;;
46110;SDS011;31849;55.992;37.252;2022-10-16T14:51:01;9.80;;;4.82;;
46110;SDS011;31849;55.992;37.252;2022-10-16T14:56:06;11.32;;;5.78;;
46110;SDS011;31849;55.992;37.252;2022-10-16T15:01:10;15.00;;;6.68;;
46110;SDS011;31849;55.992;37.252;2022-10-16T15:06:16;17.63;;;8.35;;
46110;SDS011;31849;55.992;37.252;2022-10-16T15:11:20;21.48;;;9.43;;
46110;SDS011;31849;55.992;37.252;2022-10-16T15:16:24;17.80;;;9.17;;
46110;SDS011;31849;55.992;37.252;2022-10-16T15:21:30;18.85;;;8.13;;
46110;SDS011;31849;55.992;37.252;2022-10-16T15:26:36;20.92;;;8.50;;
46110;SDS011;31849;55.992;37.252;2022-10-16T15:31:40;19.13;;;9.40;;
46110;SDS011;31849;55.992;37.252;2022-10-16T15:36:46;20.98;;;9.52;;
46110;SDS011;31849;55.992;37.252;2022-10-16T15:41:50;20.90;;;8.63;;
46110;SDS011;31849;55.992;37.252;2022-10-16T15:46:56;18.70;;;9.30;;
46110;SDS011;31849;55.992;37.252;2022-10-16T15:52:02;20.00;;;9.23;;
46110;SDS011;31849;55.992;37.252;2022-10-16T15:57:07;17.52;;;9.25;;
46110;SDS011;31849;55.992;37.252;2022-10-16T16:02:10;21.75;;;9.75;;
46110;SDS011;31849;55.992;37.252;2022-10-16T16:07:15;19.48;;;9.82;;
46110;SDS011;31849;55.992;37.252;2022-10-16T16:12:21;21.98;;;9.32;;
46110;SDS011;31849;55.992;37.252;2022-10-16T16:17:25;15.00;;;7.97;;
46110;SDS011;31849;55.992;37.252;2022-10-16T16:22:30;13.20;;;7.33;;
46110;SDS011;31849;55.992;37.252;2022-10-16T16:32:40;14.02;;;7.03;;
46110;SDS011;31849;55.992;37.252;2022-10-16T16:37:46;12.90;;;7.00;;
46110;SDS011;31849;55.992;37.252;2022-10-16T16:42:50;16.77;;;7.70;;
46110;SDS011;31849;55.992;37.252;2022-10-16T16:47:54;15.88;;;8.25;;
46110;SDS011;31849;55.992;37.252;2022-10-16T16:53:00;15.40;;;7.65;;
46110;SDS011;31849;55.992;37.252;2022-10-16T16:58:04;14.23;;;7.28;;
46110;SDS011;31849;55.992;37.252;2022-10-16T17:03:08;14.82;;;6.80;;
46110;SDS011;31849;55.992;37.252;2022-10-16T17:08:13;17.77;;;7.75;;
46110;SDS011;31849;55.992;37.252;2022-10-16T17:13:17;12.77;;;6.78;;
46110;SDS011;31849;55.992;37.252;2022-10-16T17:18:22;15.18;;;6.60;;
46110;SDS011;31849;55.992;37.252;2022-10-16T17:23:31;14.40;;;6.43;;
46110;SDS011;31849;55.992;37.252;2022-10-16T17:28:35;12.10;;;6.45;;
46110;SDS011;31849;55.992;37.252;2022-10-16T17:33:39;13.30;;;6.75;;
46110;SDS011;31849;55.992;37.252;2022-10-16T17:38:44;12.52;;;5.75;;
46110;SDS011;31849;55.992;37.252;2022-10-16T17:43:49;10.30;;;6.22;;
46110;SDS011;31849;55.992;37.252;2022-10-16T17:48:53;18.42;;;6.68;;
46110;SDS011;31849;55.992;37.252;2022-10-16T17:53:59;15.45;;;5.95;;
46110;SDS011;31849;55.992;37.252;2022-10-16T17:59:04;12.55;;;5.55;;
46110;SDS011;31849;55.992;37.252;2022-10-16T18:09:17;9.57;;;5.55;;
46110;SDS011;31849;55.992;37.252;2022-10-16T18:14:23;13.43;;;5.45;;
46110;SDS011;31849;55.992;37.252;2022-10-16T18:19:26;10.57;;;5.85;;
46110;SDS011;31849;55.992;37.252;2022-10-16T18:24:31;12.40;;;5.90;;
46110;SDS011;31849;55.992;37.252;2022-10-16T18:29:37;10.65;;;5.18;;
46110;SDS011;31849;55.992;37.252;2022-10-16T18:34:41;10.73;;;5.23;;
46110;SDS011;31849;55.992;37.252;2022-10-16T18:39:48;10.00;;;4.80;;
46110;SDS011;31849;55.992;37.252;2022-10-16T18:44:53;9.35;;;5.07;;
46110;SDS011;31849;55.992;37.252;2022-10-16T18:49:56;8.45;;;4.97;;
46110;SDS011;31849;55.992;37.252;2022-10-16T18:55:02;10.43;;;5.40;;
46110;SDS011;31849;55.992;37.252;2022-10-16T19:00:08;8.68;;;4.93;;
46110;SDS011;31849;55.992;37.252;2022-10-16T19:05:12;10.40;;;4.60;;
46110;SDS011;31849;55.992;37.252;2022-10-16T19:10:18;7.63;;;4.28;;
46110;SDS011;31849;55.992;37.252;2022-10-16T19:15:22;8.38;;;4.88;;
46110;SDS011;31849;55.992;37.252;2022-10-16T19:20:26;11.93;;;5.37;;
46110;SDS011;31849;55.992;37.252;2022-10-16T19:25:32;10.20;;;5.05;;
46110;SDS011;31849;55.992;37.252;2022-10-16T19:30:39;12.70;;;5.18;;
46110;SDS011;31849;55.992;37.252;2022-10-16T19:35:47;11.10;;;4.80;;
46110;SDS011;31849;55.992;37.252;2022-10-16T19:40:53;9.23;;;4.70;;
46110;SDS011;31849;55.992;37.252;2022-10-16T19:46:00;8.20;;;4.45;;
46110;SDS011;31849;55.992;37.252;2022-10-16T19:51:06;14.45;;;5.55;;
46110;SDS011;31849;55.992;37.252;2022-10-16T19:56:15;11.60;;;4.72;;
46110;SDS011;31849;55.992;37.252;2022-10-16T20:01:23;9.45;;;5.18;;
46110;SDS011;31849;55.992;37.252;2022-10-16T20:06:28;8.52;;;4.60;;
46110;SDS011;31849;55.992;37.252;2022-10-16T20:11:34;10.25;;;4.55;;
46110;SDS011;31849;55.992;37.252;2022-10-16T20:16:38;11.20;;;4.57;;
46110;SDS011;31849;55.992;37.252;2022-10-16T20:21:43;9.60;;;4.23;;
46110;SDS011;31849;55.992;37.252;2022-10-16T20:26:48;10.40;;;4.60;;
46110;SDS011;31849;55.992;37.252;2022-10-16T20:31:52;7.80;;;4.80;;
46110;SDS011;31849;55.992;37.252;2022-10-16T20:36:57;11.13;;;5.03;;
46110;SDS011;31849;55.992;37.252;2022-10-16T20:42:02;8.93;;;4.77;;
46110;SDS011;31849;55.992;37.252;2022-10-16T20:47:06;10.05;;;4.68;;
46110;SDS011;31849;55.992;37.252;2022-10-16T20:52:10;9.43;;;4.63;;
46110;SDS011;31849;55.992;37.252;2022-10-16T20:57:15;9.23;;;4.38;;
46110;SDS011;31849;55.992;37.252;2022-10-16T21:02:19;9.55;;;5.07;;
46110;SDS011;31849;55.992;37.252;2022-10-16T21:07:23;7.13;;;4.35;;
46110;SDS011;31849;55.992;37.252;2022-10-16T21:12:29;8.95;;;4.88;;
46110;SDS011;31849;55.992;37.252;2022-10-16T21:17:32;8.85;;;3.95;;
46110;SDS011;31849;55.992;37.252;2022-10-16T21:22:36;8.43;;;4.33;;
46110;SDS011;31849;55.992;37.252;2022-10-16T21:27:41;6.22;;;4.05;;
46110;SDS011;31849;55.992;37.252;2022-10-16T21:32:45;9.68;;;4.10;;
46110;SDS011;31849;55.992;37.252;2022-10-16T21:37:48;7.20;;;3.90;;
46110;SDS011;31849;55.992;37.252;2022-10-16T21:42:54;7.43;;;3.87;;
46110;SDS011;31849;55.992;37.252;2022-10-16T21:47:58;7.15;;;3.83;;
46110;SDS011;31849;55.992;37.252;2022-10-16T21:53:02;8.65;;;4.30;;
46110;SDS011;31849;55.992;37.252;2022-10-16T21:58:08;8.73;;;4.20;;
46110;SDS011;31849;55.992;37.252;2022-10-16T22:03:12;7.50;;;4.20;;
46110;SDS011;31849;55.992;37.252;2022-10-16T22:08:15;6.97;;;3.55;;
46110;SDS011;31849;55.992;37.252;2022-10-16T22:13:20;6.60;;;4.03;;
46110;SDS011;31849;55.992;37.252;2022-10-16T22:18:24;6.43;;;3.83;;
46110;SDS011;31849;55.992;37.252;2022-10-16T22:23:28;8.70;;;4.30;;
46110;SDS011;31849;55.992;37.252;2022-10-16T22:28:33;6.28;;;3.85;;
46110;SDS011;31849;55.992;37.252;2022-10-16T22:33:38;6.38;;;3.80;;
46110;SDS011;31849;55.992;37.252;2022-10-16T22:38:41;6.60;;;3.40;;
46110;SDS011;31849;55.992;37.252;2022-10-16T22:43:48;8.20;;;4.40;;
46110;SDS011;31849;55.992;37.252;2022-10-16T22:48:51;6.95;;;3.50;;
46110;SDS011;31849;55.992;37.252;2022-10-16T22:53:56;5.82;;;3.50;;
46110;SDS011;31849;55.992;37.252;2022-10-16T22:59:01;8.50;;;3.60;;
46110;SDS011;31849;55.992;37.252;2022-10-16T23:04:06;8.23;;;3.80;;
46110;SDS011;31849;55.992;37.252;2022-10-16T23:09:09;7.93;;;3.50;;
46110;SDS011;31849;55.992;37.252;2022-10-16T23:14:19;7.47;;;3.80;;
46110;SDS011;31849;55.992;37.252;2022-10-16T23:19:23;7.95;;;3.58;;
46110;SDS011;31849;55.992;37.252;2022-10-16T23:24:28;5.87;;;3.20;;
46110;SDS011;31849;55.992;37.252;2022-10-16T23:29:33;5.40;;;3.50;;
46110;SDS011;31849;55.992;37.252;2022-10-16T23:34:38;6.30;;;3.60;;
46110;SDS011;31849;55.992;37.252;2022-10-16T23:39:41;7.15;;;3.67;;
46110;SDS011;31849;55.992;37.252;2022-10-16T23:44:47;5.27;;;3.37;;
46110;SDS011;31849;55.992;37.252;2022-10-16T23:49:50;7.68;;;3.38;;
46110;SDS011;31849;55.992;37.252;2022-10-16T23:54:54;7.85;;;3.55;;
46110;SDS011;31849;55.992;37.252;2022-10-16T23:59:59;8.30;;;3.17;;
